Aviation Digital Data Service (ADDS)

Output produced by METARs form (0303 UTC 25 January 2020)
found at http://www.aviationweather.gov/metar/data/
 
Forecast for: RJFK (KAGOSHIMA AIRPOR, JP)
Text: TAF RJFK 242305Z 2500/2606 10008KT 9000 -RA FEW015 BKN030
Forecast period: 0000 UTC 25 January 2020 to 0600 UTC 26 January 2020
Forecast type: FROM: standard forecast or significant change
Winds: from the E (100 degrees) at 9 MPH (8 knots; 4.1 m/s)
Visibility: 6 miles (9 km)
Ceiling: 3000 feet AGL
Clouds: few clouds at 1500 feet AGL
broken clouds at 3000 feet AGL
Weather: -RA  (light rain)
Text: TEMPO 2507/2511 4000 RA BR
Forecast period: 0700 to 1100 UTC 25 January 2020
Forecast type: TEMPORARY: The following changes expected for less than half the time period
Visibility: 2.49 miles (4.01 km)
Ceiling: unknown
Clouds: missing
Weather: RA BR  (moderate rain, mist)